Alexander, Iowa
Current Conditions -  °F | °C
As of 10:55 PM on Thursday 30 Oct 2014 (Local Time) from KCAV Reporting Station
Overcast Overcast  
Wind Chill: 31°   Ceiling: 3400
Heat Index: 41°   Visibility: 10mi
Dew Point: 30°   Wind: 22mph
Humidity: 65%   Direction: 340°NNW
Pressure: 30.27"   Gusts: 32mph
Location:  42.81°N, 93.48°W
Report Text: KCAV 310355Z AUTO 34019G28KT 10SM OVC034 05/M01 A3027 RMK AO2
Loading
Personal Weather Stations






























Interactive Weather Map
Tropical Storm Tracking
New forecast layout! Learn more

10-Day Weather Forecast

Advertisements
Track Severe Weather on mobile